sensor_id;sensor_type;location;lat;lon;timestamp;P1;durP1;ratioP1;P2;durP2;ratioP2
57535;SDS011;43361;49.790;8.960;2022-12-04T00:08:38;5.65;;;4.03;;
57535;SDS011;43361;49.790;8.960;2022-12-04T00:18:38;5.05;;;3.45;;
57535;SDS011;43361;49.790;8.960;2022-12-04T00:28:40;5.55;;;3.88;;
57535;SDS011;43361;49.790;8.960;2022-12-04T00:38:41;5.35;;;3.85;;
57535;SDS011;43361;49.790;8.960;2022-12-04T00:48:43;5.38;;;3.72;;
57535;SDS011;43361;49.790;8.960;2022-12-04T00:58:44;5.35;;;3.75;;
57535;SDS011;43361;49.790;8.960;2022-12-04T01:08:45;4.97;;;3.40;;
57535;SDS011;43361;49.790;8.960;2022-12-04T01:18:46;4.72;;;3.70;;
57535;SDS011;43361;49.790;8.960;2022-12-04T01:28:48;7.10;;;3.90;;
57535;SDS011;43361;49.790;8.960;2022-12-04T01:38:48;3.95;;;3.13;;
57535;SDS011;43361;49.790;8.960;2022-12-04T01:48:50;4.37;;;3.50;;
57535;SDS011;43361;49.790;8.960;2022-12-04T01:58:53;4.15;;;3.20;;
57535;SDS011;43361;49.790;8.960;2022-12-04T02:08:57;4.88;;;3.33;;
57535;SDS011;43361;49.790;8.960;2022-12-04T02:18:59;3.90;;;3.25;;
57535;SDS011;43361;49.790;8.960;2022-12-04T02:29:04;3.97;;;2.85;;
57535;SDS011;43361;49.790;8.960;2022-12-04T02:39:08;5.03;;;3.47;;
57535;SDS011;43361;49.790;8.960;2022-12-04T02:49:11;4.90;;;3.58;;
57535;SDS011;43361;49.790;8.960;2022-12-04T02:59:14;3.63;;;3.00;;
57535;SDS011;43361;49.790;8.960;2022-12-04T03:09:18;3.58;;;3.13;;
57535;SDS011;43361;49.790;8.960;2022-12-04T03:19:20;4.10;;;3.33;;
57535;SDS011;43361;49.790;8.960;2022-12-04T03:29:24;4.18;;;3.05;;
57535;SDS011;43361;49.790;8.960;2022-12-04T03:39:28;3.92;;;3.00;;
57535;SDS011;43361;49.790;8.960;2022-12-04T03:49:36;3.25;;;2.78;;
57535;SDS011;43361;49.790;8.960;2022-12-04T03:59:38;4.88;;;2.78;;
57535;SDS011;43361;49.790;8.960;2022-12-04T04:09:41;3.50;;;2.80;;
57535;SDS011;43361;49.790;8.960;2022-12-04T04:19:43;4.68;;;3.13;;
57535;SDS011;43361;49.790;8.960;2022-12-04T04:30:05;6.53;;;2.93;;
57535;SDS011;43361;49.790;8.960;2022-12-04T04:40:07;4.13;;;2.97;;
57535;SDS011;43361;49.790;8.960;2022-12-04T04:50:11;3.42;;;2.90;;
57535;SDS011;43361;49.790;8.960;2022-12-04T05:00:13;4.03;;;2.53;;
57535;SDS011;43361;49.790;8.960;2022-12-04T05:10:16;3.67;;;2.78;;
57535;SDS011;43361;49.790;8.960;2022-12-04T05:20:16;2.90;;;2.42;;
57535;SDS011;43361;49.790;8.960;2022-12-04T05:30:18;3.45;;;2.85;;
57535;SDS011;43361;49.790;8.960;2022-12-04T05:40:18;2.47;;;2.15;;
57535;SDS011;43361;49.790;8.960;2022-12-04T05:50:20;3.25;;;2.60;;
57535;SDS011;43361;49.790;8.960;2022-12-04T06:00:21;4.88;;;3.10;;
57535;SDS011;43361;49.790;8.960;2022-12-04T06:10:22;3.97;;;2.88;;
57535;SDS011;43361;49.790;8.960;2022-12-04T06:20:23;3.70;;;2.72;;
57535;SDS011;43361;49.790;8.960;2022-12-04T06:30:24;4.28;;;2.80;;
57535;SDS011;43361;49.790;8.960;2022-12-04T06:40:25;8.43;;;3.30;;
57535;SDS011;43361;49.790;8.960;2022-12-04T06:50:27;14.75;;;5.50;;
57535;SDS011;43361;49.790;8.960;2022-12-04T07:00:27;13.80;;;4.90;;
57535;SDS011;43361;49.790;8.960;2022-12-04T07:10:29;16.35;;;5.70;;
57535;SDS011;43361;49.790;8.960;2022-12-04T07:20:29;14.02;;;5.43;;
57535;SDS011;43361;49.790;8.960;2022-12-04T07:30:31;19.42;;;4.97;;
57535;SDS011;43361;49.790;8.960;2022-12-04T07:40:32;54.30;;;22.58;;
57535;SDS011;43361;49.790;8.960;2022-12-04T07:50:33;42.70;;;14.90;;
57535;SDS011;43361;49.790;8.960;2022-12-04T08:00:34;45.45;;;13.90;;
57535;SDS011;43361;49.790;8.960;2022-12-04T08:10:37;48.35;;;14.05;;
57535;SDS011;43361;49.790;8.960;2022-12-04T08:20:38;34.25;;;12.50;;
57535;SDS011;43361;49.790;8.960;2022-12-04T08:30:40;35.33;;;11.63;;
57535;SDS011;43361;49.790;8.960;2022-12-04T08:40:40;37.30;;;12.32;;
57535;SDS011;43361;49.790;8.960;2022-12-04T08:50:44;29.75;;;10.95;;
57535;SDS011;43361;49.790;8.960;2022-12-04T09:00:44;28.63;;;10.20;;
57535;SDS011;43361;49.790;8.960;2022-12-04T09:10:46;30.80;;;12.18;;
57535;SDS011;43361;49.790;8.960;2022-12-04T09:20:53;31.05;;;10.77;;
57535;SDS011;43361;49.790;8.960;2022-12-04T09:30:58;31.10;;;11.45;;
57535;SDS011;43361;49.790;8.960;2022-12-04T09:41:00;33.10;;;11.38;;
57535;SDS011;43361;49.790;8.960;2022-12-04T09:51:03;23.42;;;10.70;;
57535;SDS011;43361;49.790;8.960;2022-12-04T10:01:05;21.05;;;10.05;;
57535;SDS011;43361;49.790;8.960;2022-12-04T10:11:09;22.58;;;9.85;;
57535;SDS011;43361;49.790;8.960;2022-12-04T10:21:14;22.25;;;8.95;;
57535;SDS011;43361;49.790;8.960;2022-12-04T10:31:21;25.80;;;9.95;;
57535;SDS011;43361;49.790;8.960;2022-12-04T10:41:23;17.83;;;6.97;;
57535;SDS011;43361;49.790;8.960;2022-12-04T10:51:26;20.58;;;7.30;;
57535;SDS011;43361;49.790;8.960;2022-12-04T11:01:27;20.50;;;7.50;;
57535;SDS011;43361;49.790;8.960;2022-12-04T11:11:30;18.67;;;7.03;;
57535;SDS011;43361;49.790;8.960;2022-12-04T11:21:31;17.95;;;6.82;;
57535;SDS011;43361;49.790;8.960;2022-12-04T11:31:35;15.80;;;6.63;;
57535;SDS011;43361;49.790;8.960;2022-12-04T11:41:36;16.90;;;6.50;;
57535;SDS011;43361;49.790;8.960;2022-12-04T11:51:41;17.20;;;6.78;;
57535;SDS011;43361;49.790;8.960;2022-12-04T12:01:45;11.63;;;6.15;;
57535;SDS011;43361;49.790;8.960;2022-12-04T12:11:48;19.27;;;6.82;;
57535;SDS011;43361;49.790;8.960;2022-12-04T12:21:52;12.40;;;5.57;;
57535;SDS011;43361;49.790;8.960;2022-12-04T12:32:07;12.98;;;5.63;;
57535;SDS011;43361;49.790;8.960;2022-12-04T12:42:11;12.75;;;5.85;;
57535;SDS011;43361;49.790;8.960;2022-12-04T12:52:16;13.07;;;5.60;;
57535;SDS011;43361;49.790;8.960;2022-12-04T13:02:21;11.75;;;4.85;;
57535;SDS011;43361;49.790;8.960;2022-12-04T13:12:23;11.02;;;4.63;;
57535;SDS011;43361;49.790;8.960;2022-12-04T13:22:26;9.98;;;5.00;;
57535;SDS011;43361;49.790;8.960;2022-12-04T13:32:35;9.10;;;4.78;;
57535;SDS011;43361;49.790;8.960;2022-12-04T13:42:38;12.20;;;4.80;;
57535;SDS011;43361;49.790;8.960;2022-12-04T13:52:40;20.05;;;6.05;;
57535;SDS011;43361;49.790;8.960;2022-12-04T14:02:42;14.60;;;5.43;;
57535;SDS011;43361;49.790;8.960;2022-12-04T14:12:55;19.95;;;5.80;;
57535;SDS011;43361;49.790;8.960;2022-12-04T14:23:05;14.23;;;5.20;;
57535;SDS011;43361;49.790;8.960;2022-12-04T14:33:08;15.37;;;4.60;;
57535;SDS011;43361;49.790;8.960;2022-12-04T14:43:12;12.55;;;4.78;;
57535;SDS011;43361;49.790;8.960;2022-12-04T14:53:17;13.35;;;4.82;;
57535;SDS011;43361;49.790;8.960;2022-12-04T15:03:22;9.82;;;3.97;;
57535;SDS011;43361;49.790;8.960;2022-12-04T15:13:25;10.05;;;4.28;;
57535;SDS011;43361;49.790;8.960;2022-12-04T15:23:27;11.13;;;4.35;;
57535;SDS011;43361;49.790;8.960;2022-12-04T15:33:31;10.35;;;4.60;;
57535;SDS011;43361;49.790;8.960;2022-12-04T15:43:32;11.05;;;4.10;;
57535;SDS011;43361;49.790;8.960;2022-12-04T15:53:42;8.52;;;3.92;;
57535;SDS011;43361;49.790;8.960;2022-12-04T16:03:44;12.98;;;4.38;;
57535;SDS011;43361;49.790;8.960;2022-12-04T16:13:47;17.10;;;4.18;;
57535;SDS011;43361;49.790;8.960;2022-12-04T16:23:48;16.33;;;4.93;;
57535;SDS011;43361;49.790;8.960;2022-12-04T16:33:50;96.10;;;26.65;;
57535;SDS011;43361;49.790;8.960;2022-12-04T16:43:51;247.60;;;87.95;;
57535;SDS011;43361;49.790;8.960;2022-12-04T16:53:54;224.02;;;79.00;;
57535;SDS011;43361;49.790;8.960;2022-12-04T17:03:54;168.52;;;68.60;;
57535;SDS011;43361;49.790;8.960;2022-12-04T17:13:56;149.05;;;59.17;;
57535;SDS011;43361;49.790;8.960;2022-12-04T17:23:57;111.65;;;46.80;;
57535;SDS011;43361;49.790;8.960;2022-12-04T17:33:58;101.70;;;43.20;;
57535;SDS011;43361;49.790;8.960;2022-12-04T17:43:59;99.80;;;41.30;;
57535;SDS011;43361;49.790;8.960;2022-12-04T17:54:02;143.40;;;58.70;;
57535;SDS011;43361;49.790;8.960;2022-12-04T18:04:03;106.50;;;42.78;;
57535;SDS011;43361;49.790;8.960;2022-12-04T18:14:07;85.38;;;34.97;;
57535;SDS011;43361;49.790;8.960;2022-12-04T18:24:07;72.68;;;30.73;;
57535;SDS011;43361;49.790;8.960;2022-12-04T18:34:09;66.78;;;29.17;;
57535;SDS011;43361;49.790;8.960;2022-12-04T18:44:10;59.28;;;26.85;;
57535;SDS011;43361;49.790;8.960;2022-12-04T18:54:13;56.35;;;24.10;;
57535;SDS011;43361;49.790;8.960;2022-12-04T19:04:13;49.78;;;22.60;;
57535;SDS011;43361;49.790;8.960;2022-12-04T19:14:18;48.35;;;22.10;;
57535;SDS011;43361;49.790;8.960;2022-12-04T19:24:18;41.28;;;20.75;;
57535;SDS011;43361;49.790;8.960;2022-12-04T19:34:20;42.25;;;19.90;;
57535;SDS011;43361;49.790;8.960;2022-12-04T19:44:20;39.45;;;18.02;;
57535;SDS011;43361;49.790;8.960;2022-12-04T19:54:23;37.25;;;18.92;;
57535;SDS011;43361;49.790;8.960;2022-12-04T20:04:24;32.75;;;16.33;;
57535;SDS011;43361;49.790;8.960;2022-12-04T20:14:25;32.85;;;16.10;;
57535;SDS011;43361;49.790;8.960;2022-12-04T20:24:26;30.25;;;14.70;;
57535;SDS011;43361;49.790;8.960;2022-12-04T20:34:28;24.65;;;14.13;;
57535;SDS011;43361;49.790;8.960;2022-12-04T20:44:28;29.80;;;14.63;;
57535;SDS011;43361;49.790;8.960;2022-12-04T20:54:30;24.70;;;13.13;;
57535;SDS011;43361;49.790;8.960;2022-12-04T21:04:34;31.05;;;14.18;;
57535;SDS011;43361;49.790;8.960;2022-12-04T21:14:35;28.15;;;13.80;;
57535;SDS011;43361;49.790;8.960;2022-12-04T21:34:56;21.73;;;11.93;;
57535;SDS011;43361;49.790;8.960;2022-12-04T21:44:57;19.13;;;10.43;;
57535;SDS011;43361;49.790;8.960;2022-12-04T21:54:59;24.35;;;11.15;;
57535;SDS011;43361;49.790;8.960;2022-12-04T22:04:59;20.80;;;10.88;;
57535;SDS011;43361;49.790;8.960;2022-12-04T22:15:01;16.80;;;10.40;;
57535;SDS011;43361;49.790;8.960;2022-12-04T22:25:01;17.67;;;10.13;;
57535;SDS011;43361;49.790;8.960;2022-12-04T22:35:03;18.63;;;10.20;;
57535;SDS011;43361;49.790;8.960;2022-12-04T22:45:04;17.63;;;9.98;;
57535;SDS011;43361;49.790;8.960;2022-12-04T22:55:06;15.07;;;9.77;;
57535;SDS011;43361;49.790;8.960;2022-12-04T23:05:07;16.15;;;9.75;;
57535;SDS011;43361;49.790;8.960;2022-12-04T23:15:09;15.93;;;9.70;;
57535;SDS011;43361;49.790;8.960;2022-12-04T23:25:09;14.77;;;9.18;;
57535;SDS011;43361;49.790;8.960;2022-12-04T23:35:11;15.32;;;8.68;;
57535;SDS011;43361;49.790;8.960;2022-12-04T23:45:11;17.25;;;9.45;;
57535;SDS011;43361;49.790;8.960;2022-12-04T23:55:13;12.75;;;8.40;;
